Time;durP1;ratioP1;P1;durP2;ratioP2;P2;SDS_P1;SDS_P2;PMS_P1;PMS_P2;Temp;Humidity;BMP_temperature;BMP_pressure;BME280_temperature;BME280_humidity;BME280_pressure;Samples;Min_cycle;Max_cycle;Signal;HPM_P1;HPM_P2
2023/02/12 00:00:16;;;;;;;4.30;2.20;;;;;;;1.07;78.92;101311.61;102989;1258;139066;-66
2023/02/12 00:03:03;;;;;;;7.10;2.40;;;;;;;1.04;79.03;101317.86;103089;1260;107962;-66
2023/02/12 00:05:31;;;;;;;4.70;2.20;;;;;;;1.01;79.18;101324.83;103106;1258;97784;-66
2023/02/12 00:07:58;;;;;;;6.70;2.40;;;;;;;1.01;79.22;101319.84;102263;1260;1003835;-66
2023/02/12 00:10:25;;;;;;;5.70;2.20;;;;;;;1.01;79.31;101327.38;103076;1260;107039;-66
2023/02/12 00:12:54;;;;;;;3.70;1.90;;;;;;;1.00;79.34;101334.04;103025;1260;138304;-66
2023/02/12 00:15:42;;;;;;;6.80;2.20;;;;;;;1.01;79.49;101336.11;103067;1257;107140;-66
2023/02/12 00:18:10;;;;;;;4.90;1.90;;;;;;;1.03;79.49;101340.95;103013;1256;138460;-66
2023/02/12 00:20:47;;;;;;;5.40;2.20;;;;;;;1.04;79.57;101349.89;103092;1256;111657;-66
2023/02/12 00:23:15;;;;;;;4.70;1.90;;;;;;;1.05;79.51;101362.25;103078;1261;107175;-67
2023/02/12 00:25:44;;;;;;;5.60;1.90;;;;;;;1.06;79.53;101367.58;102957;1257;138315;-67
2023/02/12 00:28:15;;;;;;;5.10;2.20;;;;;;;1.07;79.64;101369.67;103090;1255;106163;-66
2023/02/12 00:30:42;;;;;;;7.10;2.50;;;;;;;1.09;79.74;101376.23;102930;1257;138314;-66
2023/02/12 00:33:12;;;;;;;3.50;2.10;;;;;;;1.08;79.47;101380.52;103106;1260;110753;-66
2023/02/12 00:35:39;;;;;;;5.90;2.00;;;;;;;1.07;79.10;101377.54;103087;1260;106987;-66
2023/02/12 00:38:27;;;;;;;6.70;2.90;;;;;;;1.04;78.92;101380.89;103138;1260;97888;-66
2023/02/12 00:41:14;;;;;;;5.50;3.00;;;;;;;1.02;78.71;101380.48;103082;1260;107857;-66
2023/02/12 00:43:43;;;;;;;4.90;2.00;;;;;;;0.99;78.36;101380.08;102982;1260;210683;-66
2023/02/12 00:46:10;;;;;;;3.30;1.60;;;;;;;0.96;78.19;101388.57;103056;1257;111009;-66
2023/02/12 00:48:38;;;;;;;3.30;1.70;;;;;;;0.93;78.35;101392.96;102987;1260;138321;-67
2023/02/12 00:51:06;;;;;;;5.00;1.90;;;;;;;0.92;78.35;101393.61;103116;1255;97843;-66
2023/02/12 00:53:34;;;;;;;3.30;1.50;;;;;;;0.92;78.41;101401.84;103143;1258;107710;-67
2023/02/12 00:56:02;;;;;;;3.70;2.00;;;;;;;0.93;78.47;101404.77;103041;1260;138731;-67
2023/02/12 00:58:29;;;;;;;5.90;1.80;;;;;;;0.93;78.14;101406.98;103141;1258;110897;-66
2023/02/12 01:00:58;;;;;;;3.30;1.60;;;;;;;0.91;78.25;101418.94;102973;1262;138444;-66
2023/02/12 01:03:25;;;;;;;4.20;1.70;;;;;;;0.90;78.22;101412.41;102445;1257;1002953;-66
2023/02/12 01:05:53;;;;;;;4.60;1.70;;;;;;;0.90;78.25;101419.95;103043;1256;139069;-67
2023/02/12 01:08:20;;;;;;;3.70;1.80;;;;;;;0.91;78.24;101426.14;103070;1259;97802;-66
2023/02/12 01:10:56;;;;;;;3.80;1.90;;;;;;;0.90;77.89;101423.88;103143;1260;112443;-66
2023/02/12 01:13:24;;;;;;;4.40;1.70;;;;;;;0.88;77.61;101432.54;103437;1259;138264;-66
2023/02/12 01:16:00;;;;;;;4.80;2.10;;;;;;;0.85;77.56;101440.67;103111;1260;97828;-66
2023/02/12 01:18:28;;;;;;;3.60;2.00;;;;;;;0.83;77.45;101437.90;103013;1260;138193;-66
2023/02/12 01:20:55;;;;;;;6.80;2.10;;;;;;;0.83;77.70;101442.34;102344;1269;1002567;-66
2023/02/12 01:23:22;;;;;;;3.80;1.60;;;;;;;0.85;78.00;101446.49;102587;1260;1003625;-66
2023/02/12 01:25:51;;;;;;;10.10;4.30;;;;;;;0.86;77.95;101451.84;102947;1260;138468;-66
2023/02/12 01:28:19;;;;;;;10.60;4.70;;;;;;;0.88;78.06;101466.60;103075;1260;98337;-66
2023/02/12 01:30:49;;;;;;;3.60;1.60;;;;;;;0.89;77.96;101462.55;103025;1256;138261;-65
2023/02/12 01:33:16;;;;;;;4.20;1.20;;;;;;;0.91;77.91;101460.39;103071;1257;97810;-66
2023/02/12 01:35:44;;;;;;;4.80;1.60;;;;;;;0.93;77.87;101466.91;102954;1258;138428;-68
2023/02/12 01:38:11;;;;;;;4.00;1.80;;;;;;;0.95;77.74;101475.55;103099;1255;107286;-65
2023/02/12 01:40:38;;;;;;;5.60;1.90;;;;;;;0.95;77.61;101472.45;103150;1269;98313;-66
2023/02/12 01:43:06;;;;;;;5.10;1.70;;;;;;;0.95;77.31;101478.28;102935;1261;138071;-65
2023/02/12 01:45:53;;;;;;;3.90;1.90;;;;;;;0.94;77.24;101476.89;103099;1260;97750;-66
2023/02/12 01:48:20;;;;;;;;;;;;;;;0.92;77.09;101479.41;102990;1255;139914;-65
2023/02/12 01:50:52;;;;;;;1.90;1.30;;;;;;;0.90;77.00;101478.85;103094;1257;108020;-65
2023/02/12 01:53:25;;;;;;;2.40;1.50;;;;;;;0.90;77.06;101474.23;103105;1258;97811;-66
2023/02/12 01:55:57;;;;;;;4.70;1.60;;;;;;;0.91;77.12;101473.39;103061;1256;139261;-65
2023/02/12 01:58:26;;;;;;;4.20;1.70;;;;;;;0.91;77.07;101482.82;103239;1260;97767;-66
2023/02/12 02:00:56;;;;;;;7.60;2.20;;;;;;;0.91;76.83;101490.35;103165;1258;138152;-65
2023/02/12 02:03:23;;;;;;;3.30;1.80;;;;;;;0.90;76.59;101494.41;103092;1261;108009;-65
2023/02/12 02:05:56;;;;;;;3.50;1.60;;;;;;;0.88;76.52;101504.46;103073;1255;139037;-67
2023/02/12 02:08:27;;;;;;;2.80;1.60;;;;;;;0.87;76.32;101503.58;103129;1260;107944;-66
2023/02/12 02:10:55;;;;;;;3.90;1.50;;;;;;;0.87;76.52;101504.43;103118;1260;97872;-66
2023/02/12 02:16:18;;;;;;;4.30;1.80;;;;;;;0.88;76.50;101510.45;103138;1261;107579;-66
2023/02/12 02:18:58;;;;;;;3.10;1.70;;;;;;;0.89;76.28;101522.97;102332;1259;1003671;-65
2023/02/12 02:21:59;;;;;;;3.30;1.60;;;;;;;0.89;76.26;101527.76;103130;1257;107752;-66
2023/02/12 02:24:47;;;;;;;2.80;1.60;;;;;;;0.88;76.15;101521.08;103008;1257;138506;-66
2023/02/12 02:27:26;;;;;;;3.30;1.80;;;;;;;0.88;75.67;101517.48;103133;1257;111870;-66
2023/02/12 02:30:29;;;;;;;3.40;1.60;;;;;;;0.84;75.37;101533.63;102985;1258;138545;-66
2023/02/12 02:33:12;;;;;;;3.50;1.90;;;;;;;0.82;75.40;101549.33;103102;1257;98371;-66
2023/02/12 02:35:48;;;;;;;5.60;2.20;;;;;;;0.84;75.71;101556.90;103144;1260;108059;-66
2023/02/12 02:38:32;;;;;;;3.00;1.70;;;;;;;0.86;75.85;101555.93;103070;1257;97841;-66
2023/02/12 02:41:07;;;;;;;3.60;1.70;;;;;;;0.88;75.88;101558.22;103136;1260;112363;-66
2023/02/12 02:43:39;;;;;;;2.90;1.60;;;;;;;0.90;75.99;101567.02;102996;1259;138295;-66
2023/02/12 02:46:13;;;;;;;3.00;1.50;;;;;;;0.91;75.69;101570.30;102771;1260;496578;-66
2023/02/12 02:48:45;;;;;;;4.80;1.40;;;;;;;0.90;75.41;101569.94;102942;1260;138362;-66
2023/02/12 02:51:15;;;;;;;2.10;1.20;;;;;;;0.89;75.27;101571.25;102432;1257;1002991;-66
2023/02/12 02:53:48;;;;;;;1.30;1.20;;;;;;;0.86;74.73;101579.55;103238;1254;114490;-66
2023/02/12 02:56:19;;;;;;;3.40;1.50;;;;;;;0.82;74.75;101592.47;103523;1257;107640;-66
2023/02/12 02:58:51;;;;;;;6.90;1.70;;;;;;;0.79;74.95;101597.52;102540;1258;1002873;-66
2023/02/12 03:02:21;;;;;;;2.70;1.60;;;;;;;0.77;74.78;101605.52;102706;1248;1002238;31
2023/02/12 03:05:14;;;;;;;3.40;1.40;;;;;;;0.73;74.61;101616.17;102496;1256;1003560;-65
2023/02/12 03:07:46;;;;;;;3.20;1.40;;;;;;;0.70;74.59;101623.60;102914;1255;138773;-65
2023/02/12 03:10:27;;;;;;;3.80;1.50;;;;;;;0.68;74.61;101627.14;103042;1256;106589;-66
2023/02/12 03:13:00;;;;;;;3.00;1.30;;;;;;;0.66;74.72;101631.20;103000;1255;138303;-65
2023/02/12 03:15:37;;;;;;;2.60;1.20;;;;;;;0.66;74.25;101645.23;102255;1260;1003061;-66
2023/02/12 03:18:20;;;;;;;4.00;1.20;;;;;;;0.64;74.35;101657.48;102885;1260;138764;-66
2023/02/12 03:20:53;;;;;;;2.50;1.20;;;;;;;0.64;74.66;101661.59;103037;1260;112421;-66
2023/02/12 03:23:26;;;;;;;2.00;1.10;;;;;;;0.66;74.77;101656.85;102986;1260;106511;-65
2023/02/12 03:25:57;;;;;;;3.50;1.30;;;;;;;0.66;74.65;101661.65;102950;1261;138645;-65
2023/02/12 03:28:30;;;;;;;1.50;1.40;;;;;;;0.64;74.53;101656.63;103048;1255;109324;-66
2023/02/12 03:31:07;;;;;;;3.20;1.50;;;;;;;0.65;74.51;101659.59;102907;1260;138348;-66
2023/02/12 03:33:43;;;;;;;3.60;1.70;;;;;;;0.67;74.52;101668.35;103112;1260;111857;-65
2023/02/12 03:36:20;;;;;;;3.10;1.50;;;;;;;0.66;74.15;101674.67;102872;1260;138622;-65
2023/02/12 03:38:53;;;;;;;4.00;1.70;;;;;;;0.65;73.83;101672.41;103163;1255;97849;-64
2023/02/12 03:41:26;;;;;;;2.70;1.70;;;;;;;0.62;73.80;101678.48;102869;1256;1002514;-65
2023/02/12 03:43:59;;;;;;;2.50;1.30;;;;;;;0.60;73.49;101681.35;103297;1260;138494;-67
2023/02/12 03:46:37;;;;;;;4.90;1.80;;;;;;;0.58;73.63;101688.84;103130;1255;111287;-64
2023/02/12 03:49:11;;;;;;;1.40;1.10;;;;;;;0.57;73.47;101691.70;103019;1260;138502;-64
2023/02/12 03:51:40;;;;;;;2.50;1.40;;;;;;;0.55;73.58;101700.38;103144;1261;97910;-66
2023/02/12 03:54:12;;;;;;;3.10;1.20;;;;;;;0.55;73.54;101706.02;102954;1256;138563;-65
2023/02/12 03:56:54;;;;;;;4.40;1.40;;;;;;;0.53;73.63;101711.26;103099;1261;97677;-65
2023/02/12 03:59:43;;;;;;;3.60;1.60;;;;;;;0.54;73.68;101726.00;103082;1255;110720;-65
2023/02/12 04:02:13;;;;;;;4.10;1.40;;;;;;;0.55;73.77;101729.80;102963;1255;107785;-65
2023/02/12 04:04:43;;;;;;;2.80;1.30;;;;;;;0.55;73.70;101734.61;103108;1256;98281;-65
2023/02/12 04:07:15;;;;;;;1.60;1.10;;;;;;;0.56;73.75;101733.61;102972;1260;138741;-66
2023/02/12 04:09:45;;;;;;;2.20;1.20;;;;;;;0.57;73.51;101731.58;103124;1260;97891;-66
2023/02/12 04:12:34;;;;;;;1.10;1.00;;;;;;;0.56;73.63;101734.80;102924;1260;138327;-65
2023/02/12 04:15:04;;;;;;;;;;;;;;;0.55;73.50;101736.83;103128;1261;109397;-64
2023/02/12 04:17:41;;;;;;;2.70;1.40;;;;;;;0.55;73.28;101739.06;102395;1261;1002981;-65
2023/02/12 04:20:32;;;;;;;2.70;1.30;;;;;;;0.56;73.38;101741.64;102460;1255;1003393;-65
2023/02/12 04:23:11;;;;;;;3.00;1.50;;;;;;;0.56;73.32;101743.52;103446;1260;97798;-65
2023/02/12 04:25:49;;;;;;;2.60;1.20;;;;;;;0.56;73.37;101745.41;103305;1256;138250;-65
2023/02/12 04:28:28;;;;;;;2.90;1.20;;;;;;;0.56;73.21;101749.86;103348;1260;108490;-65
2023/02/12 04:31:03;;;;;;;1.90;1.40;;;;;;;0.56;73.17;101757.21;103431;1255;138436;-65
2023/02/12 04:33:40;;;;;;;2.00;1.30;;;;;;;0.54;72.98;101756.79;103440;1260;107941;-65
2023/02/12 04:36:13;;;;;;;3.70;1.30;;;;;;;0.53;73.00;101755.71;103038;1260;140380;-66
2023/02/12 04:38:44;;;;;;;2.70;1.30;;;;;;;0.50;72.49;101755.28;103130;1260;110185;-65
2023/02/12 04:41:32;;;;;;;3.00;1.30;;;;;;;0.45;72.41;101754.11;103016;1260;107655;-65
2023/02/12 04:44:12;;;;;;;2.50;1.20;;;;;;;0.41;72.60;101758.08;102992;1260;138333;-65
2023/02/12 04:46:40;;;;;;;5.70;1.70;;;;;;;0.39;72.64;101761.10;101652;1256;1003089;-64
2023/02/12 04:49:11;;;;;;;2.00;1.20;;;;;;;0.38;72.75;101762.11;102249;1260;1003610;-64
2023/02/12 04:51:39;;;;;;;1.40;1.20;;;;;;;0.37;72.67;101765.66;103200;1260;110552;-64
2023/02/12 04:54:09;;;;;;;2.70;1.40;;;;;;;0.36;72.82;101770.73;103005;1260;138572;-64
2023/02/12 04:56:38;;;;;;;3.30;1.40;;;;;;;0.36;72.92;101772.11;103142;1259;97802;-65
2023/02/12 04:59:06;;;;;;;2.50;1.30;;;;;;;0.36;72.54;101776.21;103194;1257;108244;-64
2023/02/12 05:01:42;;;;;;;1.60;1.20;;;;;;;0.33;72.64;101777.65;103223;1260;138339;-65
2023/02/12 05:04:29;;;;;;;2.40;1.20;;;;;;;0.32;72.77;101784.63;102570;1257;1003072;-65
2023/02/12 05:06:58;;;;;;;1.60;1.20;;;;;;;0.33;72.82;101792.20;102689;1263;138932;-66
2023/02/12 05:09:29;;;;;;;2.70;1.40;;;;;;;0.35;72.79;101796.19;103014;1261;97898;-65
2023/02/12 05:12:16;;;;;;;2.40;1.50;;;;;;;0.36;72.88;101807.90;102836;1261;138821;-65
2023/02/12 05:14:46;;;;;;;3.50;1.70;;;;;;;0.36;72.87;101811.33;102927;1257;97772;-64
2023/02/12 05:17:13;;;;;;;5.00;1.50;;;;;;;0.36;72.70;101815.41;102948;1261;111594;-65
2023/02/12 05:19:43;;;;;;;4.90;1.90;;;;;;;0.36;72.71;101819.17;102778;1261;138350;-65
2023/02/12 05:22:30;;;;;;;2.60;1.90;;;;;;;0.35;72.45;101827.85;102893;1263;97818;-65
2023/02/12 05:25:07;;;;;;;3.20;1.90;;;;;;;0.33;72.58;101828.63;101992;1257;1002682;-65
2023/02/12 05:27:34;;;;;;;3.20;1.60;;;;;;;0.32;72.46;101830.29;102151;1260;1003430;-65
2023/02/12 05:30:02;;;;;;;4.20;1.70;;;;;;;0.30;72.59;101832.30;102759;1261;138845;-66
2023/02/12 05:32:32;;;;;;;2.40;1.70;;;;;;;0.30;72.72;101833.34;102215;1257;1003630;-65
2023/02/12 05:35:10;;;;;;;4.30;1.80;;;;;;;0.33;72.99;101831.01;103002;1261;97675;-65
2023/02/12 05:37:38;;;;;;;2.90;1.70;;;;;;;0.34;72.81;101833.78;102271;1257;1003065;-65
2023/02/12 05:40:10;;;;;;;2.40;1.70;;;;;;;0.31;72.53;101844.83;102945;1261;97851;-65
2023/02/12 05:42:40;;;;;;;4.50;1.80;;;;;;;0.30;72.55;101849.92;102991;1261;138276;-66
2023/02/12 05:45:09;;;;;;;2.50;1.60;;;;;;;0.30;72.56;101855.91;102774;1258;108029;-65
2023/02/12 05:47:36;;;;;;;3.10;1.60;;;;;;;0.29;72.68;101859.64;102939;1258;97929;-65
2023/02/12 05:50:07;;;;;;;2.70;1.70;;;;;;;0.29;72.61;101864.10;102745;1262;138223;-65
2023/02/12 05:52:35;;;;;;;2.30;1.60;;;;;;;0.31;72.42;101871.52;103158;1258;97812;-65
2023/02/12 05:55:05;;;;;;;4.00;1.90;;;;;;;0.33;72.32;101880.63;102899;1258;139246;-66
2023/02/12 05:57:32;;;;;;;3.90;1.50;;;;;;;0.33;72.20;101878.92;101591;1257;1002527;-65
2023/02/12 05:59:59;;;;;;;2.80;1.50;;;;;;;0.32;72.11;101882.66;102920;1257;138777;-65
2023/02/12 06:02:38;;;;;;;2.00;1.70;;;;;;;0.31;72.29;101891.18;102957;1261;109607;-65
2023/02/12 06:05:06;;;;;;;1.70;1.60;;;;;;;0.31;72.19;101895.12;103210;1257;98211;-66
2023/02/12 06:07:33;;;;;;;4.30;2.00;;;;;;;0.32;72.34;101901.83;103174;1260;138644;-66
2023/02/12 06:10:00;;;;;;;3.20;2.20;;;;;;;0.33;72.26;101911.77;103161;1260;109444;-66
2023/02/12 06:12:27;;;;;;;2.80;2.00;;;;;;;0.34;72.39;101913.17;102345;1257;1003084;-66
2023/02/12 06:14:54;;;;;;;3.00;2.00;;;;;;;0.36;72.46;101921.63;102462;1260;1003658;-66
2023/02/12 06:17:22;;;;;;;3.40;2.40;;;;;;;0.37;72.44;101923.60;103185;1256;97890;-66
2023/02/12 06:19:49;;;;;;;2.20;1.90;;;;;;;0.40;72.45;101933.61;101537;1258;1003272;-66
2023/02/12 06:22:16;;;;;;;4.10;1.90;;;;;;;0.42;72.52;101929.25;102240;1260;1003003;-66
2023/02/12 06:24:43;;;;;;;5.70;1.80;;;;;;;0.44;72.40;101931.55;102927;1260;138971;-66
2023/02/12 06:27:10;;;;;;;4.20;1.70;;;;;;;0.46;72.41;101926.65;102913;1257;106765;-66
2023/02/12 06:29:37;;;;;;;1.90;1.60;;;;;;;0.48;72.41;101932.88;102243;1260;1002772;-67
2023/02/12 06:32:07;;;;;;;3.10;2.00;;;;;;;0.49;72.20;101935.64;102940;1257;138741;-66
2023/02/12 06:34:38;;;;;;;2.30;1.70;;;;;;;0.50;72.32;101935.84;103079;1258;107893;-66
2023/02/12 06:37:07;;;;;;;4.30;1.90;;;;;;;0.54;72.32;101937.05;102178;1257;1002712;-65
2023/02/12 06:39:37;;;;;;;3.80;2.20;;;;;;;0.59;72.20;101936.69;102311;1257;1003334;-66
2023/02/12 06:42:05;;;;;;;4.80;3.10;;;;;;;0.64;72.12;101937.70;102990;1258;138714;-66
2023/02/12 06:44:32;;;;;;;3.80;3.10;;;;;;;0.67;72.05;101944.30;102342;1260;1002964;-65
2023/02/12 06:46:59;;;;;;;6.10;3.00;;;;;;;0.73;72.11;101947.79;103055;1257;108325;-66
2023/02/12 06:49:34;;;;;;;3.30;3.00;;;;;;;0.82;72.04;101938.84;102939;1259;138367;-66
2023/02/12 06:52:01;;;;;;;3.20;2.90;;;;;;;0.95;71.95;101942.39;102362;1260;1002933;-66
2023/02/12 06:54:31;;;;;;;3.80;2.50;;;;;;;1.14;72.02;101943.38;102959;1260;138647;-69
2023/02/12 06:56:58;;;;;;;3.60;2.40;;;;;;;1.35;71.78;101946.96;103124;1258;112200;-66
2023/02/12 06:59:26;;;;;;;3.60;2.30;;;;;;;1.55;71.49;101947.63;103074;1260;107710;-66
2023/02/12 07:01:53;;;;;;;4.80;2.30;;;;;;;1.75;71.07;101948.24;102978;1257;138292;-66
2023/02/12 07:04:29;;;;;;;5.60;2.20;;;;;;;2.00;70.91;101956.21;102327;1259;1015757;-66
2023/02/12 07:06:59;;;;;;;2.80;2.10;;;;;;;2.23;70.72;101957.41;102987;1260;138511;-69
2023/02/12 07:09:27;;;;;;;3.30;2.30;;;;;;;2.44;70.40;101955.27;102906;1256;111884;-66
2023/02/12 07:11:58;;;;;;;3.00;2.50;;;;;;;2.60;69.41;101955.54;103105;1260;107657;-64
2023/02/12 07:14:45;;;;;;;4.30;2.30;;;;;;;2.88;69.34;101961.29;103190;1257;98446;-66
2023/02/12 07:17:12;;;;;;;3.90;2.60;;;;;;;3.45;69.20;101970.15;102912;1259;109110;-66
2023/02/12 07:19:39;;;;;;;3.40;2.30;;;;;;;4.11;69.20;101972.02;103356;1257;138392;-65
2023/02/12 07:22:06;;;;;;;3.40;2.30;;;;;;;4.68;68.49;101969.58;103223;1255;112321;-65
2023/02/12 07:24:34;;;;;;;2.40;1.90;;;;;;;5.19;68.01;101965.85;102654;1258;1002237;-67
2023/02/12 07:27:01;;;;;;;2.30;2.10;;;;;;;5.84;66.69;101967.62;102484;1257;1002549;-65
2023/02/12 07:29:28;;;;;;;3.10;1.70;;;;;;;6.31;65.39;101966.02;102959;1258;107939;-65
2023/02/12 07:31:55;;;;;;;4.20;1.90;;;;;;;6.70;64.81;101961.84;103890;1254;137913;-65
2023/02/12 07:34:23;;;;;;;3.50;1.90;;;;;;;7.08;64.02;101952.55;103104;1257;112172;-66
2023/02/12 07:36:50;;;;;;;3.80;2.30;;;;;;;7.51;63.53;101954.46;103044;1256;138312;-70
2023/02/12 07:39:17;;;;;;;3.60;1.80;;;;;;;7.99;62.62;101953.92;103020;1258;97799;-71
2023/02/12 07:41:44;;;;;;;2.30;1.70;;;;;;;8.51;62.26;101944.30;103084;1257;109012;-68
2023/02/12 07:44:12;;;;;;;4.20;1.80;;;;;;;8.91;60.42;101938.17;102881;1260;137731;-69
2023/02/12 07:46:41;;;;;;;2.60;1.70;;;;;;;9.20;60.00;101943.41;102988;1260;110396;-69
2023/02/12 07:49:14;;;;;;;2.80;1.80;;;;;;;9.72;59.67;101945.99;102769;1261;137883;-67
2023/02/12 07:51:42;;;;;;;2.40;1.80;;;;;;;10.21;58.17;101951.27;102988;1261;97809;-68
2023/02/12 07:54:10;;;;;;;3.60;1.50;;;;;;;10.62;57.06;101954.25;102880;1258;137960;-68
2023/02/12 07:56:38;;;;;;;1.60;1.50;;;;;;;11.00;56.84;101957.52;103111;1257;100327;-68
2023/02/12 07:59:08;;;;;;;2.40;1.50;;;;;;;11.55;55.66;101961.09;102993;1257;110948;-69
2023/02/12 08:01:37;;;;;;;2.00;1.60;;;;;;;12.09;55.20;101960.06;102930;1258;138052;-68
2023/02/12 08:04:07;;;;;;;4.30;1.60;;;;;;;12.66;53.92;101956.57;103014;1257;97681;-66
2023/02/12 08:06:37;;;;;;;2.10;1.50;;;;;;;13.27;53.32;101954.63;103196;1260;138014;-69
2023/02/12 08:09:08;;;;;;;3.20;1.90;;;;;;;13.76;51.67;101955.20;103656;1258;97817;-68
2023/02/12 08:11:36;;;;;;;3.70;2.60;;;;;;;13.82;50.05;101960.50;103210;1260;111003;-68
2023/02/12 08:14:04;;;;;;;5.00;3.00;;;;;;;13.84;49.28;101966.77;102933;1255;138121;-67
2023/02/12 08:16:35;;;;;;;4.70;2.90;;;;;;;13.60;48.52;101976.46;103209;1257;97601;-68
2023/02/12 08:19:02;;;;;;;3.80;2.00;;;;;;;13.04;47.58;101979.95;103038;1257;138109;-77
2023/02/12 08:21:43;;;;;;;3.20;1.60;;;;;;;12.06;46.87;101985.89;103076;1257;97682;-72
2023/02/12 08:24:11;;;;;;;2.20;1.60;;;;;;;11.31;47.84;101988.10;102966;1260;138789;-69
2023/02/12 08:26:39;;;;;;;2.90;1.80;;;;;;;11.09;48.94;101993.65;103147;1260;108823;-69
2023/02/12 08:29:08;;;;;;;3.30;2.00;;;;;;;11.33;49.41;101995.05;103209;1256;97668;-69
2023/02/12 08:31:37;;;;;;;3.10;2.10;;;;;;;11.33;48.73;101996.09;103033;1257;137826;-69
2023/02/12 08:34:05;;;;;;;2.10;1.60;;;;;;;10.98;48.83;101993.02;103153;1257;96748;-69
2023/02/12 08:36:35;;;;;;;3.40;2.10;;;;;;;10.69;49.05;101994.58;102838;1258;138133;-69
2023/02/12 08:39:03;;;;;;;3.30;2.00;;;;;;;10.94;48.90;101999.48;103066;1260;107669;-71
2023/02/12 08:41:33;;;;;;;2.50;1.90;;;;;;;11.37;48.27;101993.46;103006;1255;97771;-69
2023/02/12 08:44:02;;;;;;;3.00;1.70;;;;;;;11.67;48.39;101992.52;102723;1261;138492;-68
2023/02/12 08:46:31;;;;;;;3.40;1.80;;;;;;;12.22;47.57;101986.42;102915;1256;97668;-68
2023/02/12 08:49:00;;;;;;;3.70;1.80;;;;;;;12.82;47.59;101977.98;102922;1257;137869;-68
2023/02/12 08:51:30;;;;;;;3.80;2.00;;;;;;;13.52;47.36;101975.37;102956;1257;108470;-70
2023/02/12 08:53:59;;;;;;;3.50;1.90;;;;;;;14.16;46.83;101967.73;103048;1259;97792;-70
2023/02/12 08:56:28;;;;;;;3.20;1.90;;;;;;;14.58;45.44;101967.09;103076;1260;109850;-70
2023/02/12 08:58:56;;;;;;;2.90;1.50;;;;;;;15.04;45.55;101969.90;102983;1260;97787;-73
2023/02/12 09:01:26;;;;;;;2.10;1.40;;;;;;;15.68;45.63;101977.47;103016;1261;137851;-69
2023/02/12 09:03:53;;;;;;;2.00;1.40;;;;;;;16.10;44.64;101983.02;103159;1260;106941;-70
2023/02/12 09:06:23;;;;;;;2.70;1.80;;;;;;;16.04;43.81;101985.45;102920;1259;138521;-70
2023/02/12 09:08:52;;;;;;;2.90;1.80;;;;;;;16.29;43.84;101982.48;103076;1254;107369;-69
2023/02/12 09:11:23;;;;;;;2.50;1.90;;;;;;;16.19;42.58;101986.45;103918;1256;96616;-70
2023/02/12 09:13:50;;;;;;;3.50;2.30;;;;;;;15.38;41.98;101989.95;102840;1255;139236;-69
2023/02/12 09:16:17;;;;;;;3.30;2.10;;;;;;;14.89;42.19;101991.77;102905;1257;108205;-69
2023/02/12 09:18:45;;;;;;;2.90;2.00;;;;;;;14.88;42.38;101991.80;102856;1260;138017;-68
2023/02/12 09:21:14;;;;;;;5.60;2.10;;;;;;;15.16;42.55;101989.25;102977;1255;107223;-69
2023/02/12 09:23:42;;;;;;;2.60;1.90;;;;;;;15.41;41.87;101993.55;103053;1260;97786;-69
2023/02/12 09:26:11;;;;;;;3.60;1.90;;;;;;;15.65;41.52;102000.52;102937;1260;137800;-69
2023/02/12 09:28:39;;;;;;;3.80;2.40;;;;;;;15.76;40.85;102000.75;102987;1255;108204;-70
2023/02/12 09:31:09;;;;;;;4.50;2.30;;;;;;;15.71;40.62;102001.59;103015;1257;138007;-71
2023/02/12 09:33:36;;;;;;;3.40;2.30;;;;;;;16.00;41.38;102005.75;103122;1256;107968;-68
2023/02/12 09:36:08;;;;;;;2.70;2.00;;;;;;;16.44;40.99;102003.30;102963;1255;138141;-71
2023/02/12 09:38:36;;;;;;;3.40;1.80;;;;;;;16.70;40.64;102007.67;103096;1260;111218;-70
2023/02/12 09:41:25;;;;;;;3.40;2.20;;;;;;;16.70;39.68;102006.77;102968;1257;109385;-69
2023/02/12 09:43:58;;;;;;;4.20;2.30;;;;;;;16.69;39.87;102009.61;102880;1258;137969;-68
2023/02/12 09:46:30;;;;;;;3.50;2.10;;;;;;;16.97;40.26;102014.42;103015;1261;109536;-69
2023/02/12 09:49:08;;;;;;;3.30;2.00;;;;;;;17.18;39.66;102008.13;103139;1255;138137;-70
2023/02/12 09:51:36;;;;;;;3.00;1.70;;;;;;;17.06;38.59;102017.81;103069;1259;111796;-70
2023/02/12 09:54:06;;;;;;;2.40;1.70;;;;;;;16.79;38.50;102018.30;102896;1256;138350;-69
2023/02/12 09:56:38;;;;;;;3.10;1.90;;;;;;;16.55;38.36;102018.28;103224;1260;97900;-69
2023/02/12 09:59:07;;;;;;;2.90;2.10;;;;;;;16.47;38.50;102022.54;102961;1256;108153;-70
2023/02/12 10:01:35;;;;;;;3.30;2.10;;;;;;;16.20;38.31;102025.90;102925;1260;138452;-70
2023/02/12 10:04:05;;;;;;;3.30;2.00;;;;;;;16.21;38.86;102028.52;103124;1260;111303;-71
2023/02/12 10:06:38;;;;;;;3.60;1.80;;;;;;;16.25;38.59;102031.20;103332;1259;138287;-70
2023/02/12 10:09:20;;;;;;;4.40;2.10;;;;;;;16.13;38.46;102026.27;103127;1255;98294;-71
2023/02/12 10:12:00;;;;;;;3.50;2.10;;;;;;;15.93;38.17;102023.50;103074;1260;107018;-69
2023/02/12 10:14:58;;;;;;;4.30;1.60;;;;;;;15.75;38.35;102020.59;103075;1260;97881;-69
2023/02/12 10:17:35;;;;;;;3.00;1.60;;;;;;;15.72;38.40;102021.91;103063;1258;112335;-70
2023/02/12 10:20:22;;;;;;;3.90;2.00;;;;;;;15.66;38.88;102025.58;102990;1256;137906;-70
2023/02/12 10:22:58;;;;;;;2.90;2.20;;;;;;;15.92;39.10;102023.34;103173;1259;97858;-70
2023/02/12 10:25:33;;;;;;;3.80;2.10;;;;;;;16.12;38.64;102023.48;102984;1257;138423;-70
2023/02/12 10:28:08;;;;;;;3.50;2.10;;;;;;;16.19;38.72;102022.27;103070;1255;98451;-70
2023/02/12 10:30:44;;;;;;;3.30;2.00;;;;;;;16.13;38.28;102029.63;103027;1260;137887;-70
2023/02/12 10:33:19;;;;;;;4.40;2.10;;;;;;;15.75;38.17;102032.02;103086;1255;106967;-73
2023/02/12 10:35:54;;;;;;;3.30;2.20;;;;;;;15.36;38.26;102026.27;102806;1255;97787;-71
2023/02/12 10:38:27;;;;;;;2.80;2.30;;;;;;;14.98;38.12;102022.77;102832;1260;139456;-72
2023/02/12 10:40:56;;;;;;;3.00;2.20;;;;;;;14.46;38.44;102021.56;103161;1260;97796;-70
2023/02/12 10:43:24;;;;;;;3.70;2.40;;;;;;;14.23;39.04;102013.44;103052;1260;137912;-69
2023/02/12 10:45:51;;;;;;;3.40;2.20;;;;;;;14.06;39.14;102019.71;103144;1255;106863;-72
2023/02/12 10:48:22;;;;;;;5.30;2.80;;;;;;;13.70;39.07;102019.46;102999;1255;138504;-73
2023/02/12 10:51:02;;;;;;;5.30;3.50;;;;;;;13.14;39.39;102025.56;103046;1258;108530;-73
2023/02/12 10:53:34;;;;;;;3.80;2.80;;;;;;;12.78;40.07;102023.96;103180;1260;97772;-72
2023/02/12 10:56:18;;;;;;;4.90;3.40;;;;;;;12.84;40.89;102021.60;102828;1258;138086;-70
2023/02/12 10:58:55;;;;;;;6.00;3.60;;;;;;;12.99;40.87;102019.13;103027;1255;108088;-70
2023/02/12 11:01:26;;;;;;;5.50;3.40;;;;;;;13.14;41.45;102025.21;102613;1257;1002486;-70
2023/02/12 11:03:53;;;;;;;4.40;2.90;;;;;;;13.31;40.96;102028.48;103880;1256;106067;-70
2023/02/12 11:06:22;;;;;;;5.30;3.50;;;;;;;13.21;40.51;102028.80;103013;1256;138161;-73
2023/02/12 11:08:50;;;;;;;5.50;3.50;;;;;;;12.94;40.56;102026.18;103526;1255;111120;-75
2023/02/12 11:11:25;;;;;;;7.20;3.40;;;;;;;12.88;41.00;102023.98;103048;1255;107803;-69
2023/02/12 11:13:59;;;;;;;5.80;3.80;;;;;;;12.73;40.96;102022.27;103029;1259;137975;-72
2023/02/12 11:16:32;;;;;;;5.60;3.60;;;;;;;12.59;41.57;102028.21;103073;1256;108448;-70
2023/02/12 11:19:05;;;;;;;5.90;3.80;;;;;;;12.64;41.61;102031.80;102936;1259;138877;-71
2023/02/12 11:21:33;;;;;;;4.40;3.10;;;;;;;12.34;41.16;102032.33;103016;1256;110855;-71
2023/02/12 11:24:29;;;;;;;7.90;3.60;;;;;;;12.00;41.34;102031.63;103104;1255;107915;-71
2023/02/12 11:27:19;;;;;;;5.60;3.30;;;;;;;11.76;42.02;102045.41;103311;1255;98158;-73
2023/02/12 11:29:48;;;;;;;5.90;4.20;;;;;;;11.84;42.54;102041.71;103391;1260;107132;-71
2023/02/12 11:32:19;;;;;;;7.20;4.20;;;;;;;11.91;42.57;102035.73;102994;1259;138012;-70
2023/02/12 11:35:06;;;;;;;5.40;3.30;;;;;;;11.88;42.26;102034.19;103061;1255;111449;-70
2023/02/12 11:37:42;;;;;;;6.10;4.20;;;;;;;11.86;42.68;102026.38;102928;1256;138210;-71
2023/02/12 11:40:32;;;;;;;7.30;3.80;;;;;;;11.72;42.01;102021.40;103132;1255;98379;-71